Time;durP1;ratioP1;P1;durP2;ratioP2;P2;SDS_P1;SDS_P2;PMS_P1;PMS_P2;Temp;Humidity;BMP_temperature;BMP_pressure;BME280_temperature;BME280_humidity;BME280_pressure;Samples;Min_cycle;Max_cycle;Signal;HPM_P1;HPM_P2
2021/10/07 00:02:24;;;;;;;3.25;1.70;;;;;;;;;;5077386;28;20028;-58
2021/10/07 00:04:51;;;;;;;4.63;1.08;;;;;;;;;;5076797;28;20033;-60
2021/10/07 00:07:48;;;;;;;3.10;1.73;;;;;;;;;;5076265;28;20037;-58
2021/10/07 00:10:27;;;;;;;;;;;;;;;;;;;;;
2021/10/07 00:16:21;;;;;;;2.70;1.55;;;;;;;;;;5075680;28;20025;-59
2021/10/07 00:19:31;;;;;;;2.10;1.10;;;;;;;;;;5074675;28;20135;-58
2021/10/07 00:22:04;;;;;;;2.20;1.37;;;;;;;;;;5057148;28;20055;-58
2021/10/07 00:27:55;;;;;;;1.88;1.10;;;;;;;;;;5076501;28;20043;-58
2021/10/07 00:33:23;;;;;;;1.50;1.05;;;;;;;;;;5059872;28;20033;-59
2021/10/07 00:36:54;;;;;;;2.42;1.73;;;;;;;;;;5056965;28;20045;-58
2021/10/07 00:39:21;;;;;;;3.20;1.33;;;;;;;;;;5055477;28;20041;-59
2021/10/07 00:41:54;;;;;;;1.90;1.40;;;;;;;;;;5056596;28;20514;-58
2021/10/07 00:44:55;;;;;;;3.30;1.27;;;;;;;;;;5056733;28;20406;-58
2021/10/07 00:47:34;;;;;;;2.05;1.33;;;;;;;;;;5049669;28;20033;-58
2021/10/07 00:50:33;;;;;;;2.47;1.10;;;;;;;;;;5056260;28;20052;-58
2021/10/07 00:56:07;;;;;;;2.50;1.27;;;;;;;;;;5055881;28;20041;-58
2021/10/07 00:58:51;;;;;;;1.48;0.93;;;;;;;;;;5055396;28;20065;-58
2021/10/07 01:01:51;;;;;;;3.78;1.65;;;;;;;;;;5054309;28;20163;-58
2021/10/07 01:04:36;;;;;;;4.55;1.63;;;;;;;;;;5054217;28;20045;-58
2021/10/07 01:07:10;;;;;;;1.88;1.08;;;;;;;;;;5055517;28;20397;-58
2021/10/07 01:13:36;;;;;;;2.13;1.20;;;;;;;;;;5054644;28;20116;-58
2021/10/07 01:16:19;;;;;;;6.32;1.38;;;;;;;;;;5055706;28;20482;-58
2021/10/07 01:18:53;;;;;;;2.15;1.17;;;;;;;;;;5054466;28;20021;-59
2021/10/07 01:24:29;;;;;;;1.98;1.20;;;;;;;;;;5056147;28;20497;-58
2021/10/07 01:27:08;;;;;;;2.60;1.58;;;;;;;;;;5056313;28;20119;-59
2021/10/07 01:29:55;;;;;;;2.58;1.70;;;;;;;;;;5060434;28;20040;-58
2021/10/07 01:32:39;;;;;;;1.75;0.98;;;;;;;;;;5059499;28;20021;-58
2021/10/07 01:35:11;;;;;;;2.72;1.33;;;;;;;;;;5059345;28;20102;-58
2021/10/07 01:38:18;;;;;;;3.42;1.60;;;;;;;;;;5058248;28;20033;-59
2021/10/07 01:40:59;;;;;;;2.38;1.52;;;;;;;;;;5056922;28;20394;-58
2021/10/07 01:43:37;;;;;;;2.03;1.10;;;;;;;;;;5073287;28;20045;-58
2021/10/07 01:46:06;;;;;;;2.25;1.40;;;;;;;;;;5058573;28;20037;-58
2021/10/07 01:48:52;;;;;;;2.58;1.25;;;;;;;;;;5058337;28;20408;-59
2021/10/07 01:51:28;;;;;;;3.80;1.50;;;;;;;;;;5057548;28;20065;-59
2021/10/07 01:57:01;;;;;;;4.03;1.90;;;;;;;;;;5058915;28;20414;-58
2021/10/07 01:59:46;;;;;;;3.00;1.10;;;;;;;;;;5059453;28;20410;-58
2021/10/07 02:02:30;;;;;;;5.22;1.70;;;;;;;;;;5057411;28;20037;-58
2021/10/07 02:05:19;;;;;;;5.80;1.02;;;;;;;;;;5058732;28;20033;-58
2021/10/07 02:08:05;;;;;;;2.42;1.48;;;;;;;;;;5057809;28;20123;-58
2021/10/07 02:10:31;;;;;;;8.13;2.15;;;;;;;;;;5057173;28;20474;-58
2021/10/07 02:12:58;;;;;;;2.58;1.63;;;;;;;;;;5056177;28;20098;-58
2021/10/07 02:16:03;;;;;;;2.67;1.65;;;;;;;;;;5057282;28;20045;-58
2021/10/07 02:18:36;;;;;;;2.58;1.50;;;;;;;;;;5053347;28;20506;-58
2021/10/07 02:21:21;;;;;;;2.65;1.70;;;;;;;;;;5057524;28;20025;-58
2021/10/07 02:23:51;;;;;;;1.75;1.33;;;;;;;;;;5057868;28;20050;-58
2021/10/07 02:26:28;;;;;;;5.97;2.40;;;;;;;;;;5056867;28;20120;-58
2021/10/07 02:29:24;;;;;;;2.13;1.27;;;;;;;;;;5058274;28;20075;-58
2021/10/07 02:32:16;;;;;;;2.35;1.23;;;;;;;;;;5061689;28;20060;-58
2021/10/07 02:35:12;;;;;;;3.00;1.23;;;;;;;;;;5077652;28;20512;-58
2021/10/07 02:37:39;;;;;;;2.38;1.20;;;;;;;;;;5077837;28;20401;-58
2021/10/07 02:43:07;;;;;;;2.58;1.65;;;;;;;;;;5077127;28;20417;-58
2021/10/07 02:46:00;;;;;;;2.00;1.42;;;;;;;;;;5077725;28;20612;-58
2021/10/07 02:48:44;;;;;;;1.77;1.15;;;;;;;;;;5075839;28;20099;-58
2021/10/07 02:55:03;;;;;;;2.30;1.10;;;;;;;;;;5064174;28;20470;-58
2021/10/07 02:57:32;;;;;;;2.10;1.35;;;;;;;;;;5077221;28;20027;-59
2021/10/07 03:00:01;;;;;;;2.83;1.77;;;;;;;;;;5077342;28;20116;-59
2021/10/07 03:02:55;;;;;;;;;;;;;;;;;;;;;
2021/10/07 03:05:34;;;;;;;2.30;1.40;;;;;;;;;;5076602;28;20462;-59
2021/10/07 03:08:23;;;;;;;2.60;1.30;;;;;;;;;;5078264;28;20056;-58
2021/10/07 03:14:02;;;;;;;3.00;1.60;;;;;;;;;;5077243;28;20123;-58
2021/10/07 03:16:44;;;;;;;2.38;1.15;;;;;;;;;;5077909;28;20090;-58
2021/10/07 03:19:32;;;;;;;2.97;1.42;;;;;;;;;;5077069;28;20359;-58
2021/10/07 03:22:15;;;;;;;2.75;1.30;;;;;;;;;;5077653;28;20088;-58
2021/10/07 03:24:51;;;;;;;4.05;1.65;;;;;;;;;;5076167;28;20081;-58
2021/10/07 03:27:23;;;;;;;2.10;1.30;;;;;;;;;;5075554;28;20078;-58
2021/10/07 03:30:27;;;;;;;2.50;1.65;;;;;;;;;;5075941;28;20029;-58
2021/10/07 03:33:06;;;;;;;2.85;1.60;;;;;;;;;;5056371;28;20033;-58
2021/10/07 03:35:48;;;;;;;2.75;1.83;;;;;;;;;;5052816;28;20111;-58
2021/10/07 03:41:54;;;;;;;2.20;1.30;;;;;;;;;;5051378;28;20066;-58
2021/10/07 03:44:42;;;;;;;;;;;;;;;;;;;;;
2021/10/07 03:50:14;;;;;;;3.85;1.40;;;;;;;;;;5051823;28;20041;-57
2021/10/07 03:53:03;;;;;;;5.35;1.42;;;;;;;;;;5050874;28;20427;-58
2021/10/07 03:55:39;;;;;;;3.05;1.95;;;;;;;;;;5054624;28;20078;-59
2021/10/07 03:58:15;;;;;;;2.50;1.50;;;;;;;;;;5053294;28;20025;-58
2021/10/07 04:01:04;;;;;;;4.40;1.77;;;;;;;;;;5051019;28;20198;-58
2021/10/07 04:03:30;;;;;;;3.63;1.77;;;;;;;;;;5050340;28;20528;-58
2021/10/07 04:09:26;;;;;;;;;;;;;;;;;;;;;
2021/10/07 04:12:04;;;;;;;3.95;1.63;;;;;;;;;;5047716;28;20045;-58
2021/10/07 04:15:07;;;;;;;1.92;1.55;;;;;;;;;;5052042;28;20092;-58
2021/10/07 04:18:06;;;;;;;3.75;2.22;;;;;;;;;;5057279;28;20037;-58
2021/10/07 04:20:41;;;;;;;2.58;1.70;;;;;;;;;;5051822;28;20025;-59
2021/10/07 04:23:41;;;;;;;2.70;1.75;;;;;;;;;;5051591;28;20029;-59
2021/10/07 04:26:19;;;;;;;3.13;1.85;;;;;;;;;;5048644;28;20041;-58
2021/10/07 04:29:13;;;;;;;3.17;1.83;;;;;;;;;;5051027;28;20043;-57
2021/10/07 04:31:46;;;;;;;3.90;1.90;;;;;;;;;;5057958;28;20443;-57
2021/10/07 04:34:21;;;;;;;2.55;1.65;;;;;;;;;;5072263;28;20481;-57
2021/10/07 04:40:14;;;;;;;4.90;2.42;;;;;;;;;;5070545;28;20044;-58
2021/10/07 04:42:50;;;;;;;3.13;1.67;;;;;;;;;;5070261;28;20128;-58
2021/10/07 04:45:22;;;;;;;3.83;2.00;;;;;;;;;;5071747;28;20025;-58
2021/10/07 04:48:17;;;;;;;4.15;2.17;;;;;;;;;;5070749;28;20041;-59
2021/10/07 04:50:50;;;;;;;3.88;2.15;;;;;;;;;;5052039;28;20045;-58
2021/10/07 04:53:16;;;;;;;4.03;2.67;;;;;;;;;;5055216;28;20025;-58
2021/10/07 04:58:56;;;;;;;2.67;2.00;;;;;;;;;;5068442;28;20044;-58
2021/10/07 05:01:46;;;;;;;2.33;1.88;;;;;;;;;;5066530;28;20462;-58
2021/10/07 05:04:22;;;;;;;4.05;1.90;;;;;;;;;;5062266;28;20103;-59
2021/10/07 05:07:12;;;;;;;2.42;1.80;;;;;;;;;;5067900;28;20047;-58
2021/10/07 05:10:09;;;;;;;3.03;2.35;;;;;;;;;;5067042;28;20473;-60
2021/10/07 05:13:05;;;;;;;2.22;1.80;;;;;;;;;;5073311;28;20024;-59
2021/10/07 05:15:37;;;;;;;2.95;2.03;;;;;;;;;;5062817;28;20083;-59
2021/10/07 05:21:15;;;;;;;2.97;1.98;;;;;;;;;;5055025;28;20040;-59
2021/10/07 05:26:37;;;;;;;3.83;2.00;;;;;;;;;;5055407;28;20170;-59
2021/10/07 05:29:08;;;;;;;5.93;2.40;;;;;;;;;;5056317;28;20033;-59
2021/10/07 05:31:37;;;;;;;2.55;1.48;;;;;;;;;;5059785;28;20133;-59
2021/10/07 05:34:11;;;;;;;7.80;2.15;;;;;;;;;;5075135;28;20032;-58
2021/10/07 05:36:42;;;;;;;5.00;2.17;;;;;;;;;;5074770;28;20413;-60
2021/10/07 05:39:26;;;;;;;4.72;1.63;;;;;;;;;;5074461;28;20086;-59
2021/10/07 05:42:24;;;;;;;2.90;2.10;;;;;;;;;;5075616;28;20053;-59
2021/10/07 05:45:10;;;;;;;5.25;2.40;;;;;;;;;;5067122;28;20039;-59
2021/10/07 05:47:49;;;;;;;7.50;1.90;;;;;;;;;;5053239;28;20041;-59
2021/10/07 05:53:27;;;;;;;2.78;2.03;;;;;;;;;;5057376;28;20048;-59
2021/10/07 05:56:04;;;;;;;2.90;1.65;;;;;;;;;;5058950;28;20398;-59
2021/10/07 05:58:53;;;;;;;3.35;2.13;;;;;;;;;;5052972;28;20036;-59
2021/10/07 06:01:35;;;;;;;;;;;;;;;;;;;;;
2021/10/07 06:07:12;;;;;;;3.55;2.10;;;;;;;;;;5071245;28;20071;-59
2021/10/07 06:09:38;;;;;;;4.55;2.85;;;;;;;;;;5072768;28;20485;-58
2021/10/07 06:12:13;;;;;;;2.92;1.83;;;;;;;;;;5072846;28;20032;-59
2021/10/07 06:17:48;;;;;;;2.75;2.03;;;;;;;;;;5067246;28;20142;-58
2021/10/07 06:23:14;;;;;;;2.85;1.98;;;;;;;;;;5053071;28;20532;-59
2021/10/07 06:25:40;;;;;;;2.70;1.92;;;;;;;;;;5050436;28;20040;-59
2021/10/07 06:28:46;;;;;;;3.10;2.33;;;;;;;;;;5051239;28;20027;-57
2021/10/07 06:34:23;;;;;;;3.47;2.15;;;;;;;;;;5072014;28;20241;-56
2021/10/07 06:37:10;;;;;;;3.10;2.08;;;;;;;;;;5071942;28;20031;-57
2021/10/07 06:40:02;;;;;;;3.05;2.30;;;;;;;;;;5063144;28;20087;-57
2021/10/07 06:42:28;;;;;;;3.22;2.22;;;;;;;;;;5071889;28;20116;-57
2021/10/07 06:45:10;;;;;;;7.50;2.78;;;;;;;;;;5072034;28;20037;-57
2021/10/07 06:47:57;;;;;;;2.55;2.13;;;;;;;;;;5055523;28;20040;-57
2021/10/07 06:50:42;;;;;;;5.45;2.88;;;;;;;;;;5071334;28;20067;-58
2021/10/07 06:53:29;;;;;;;3.80;2.63;;;;;;;;;;5069046;28;20058;-58
2021/10/07 07:04:42;;;;;;;3.85;2.40;;;;;;;;;;5033033;28;20029;-58
2021/10/07 07:07:41;;;;;;;;;;;;;;;;;;;;;
2021/10/07 07:10:34;;;;;;;4.28;3.13;;;;;;;;;;5009158;28;20554;-58
2021/10/07 07:13:51;;;;;;;5.88;2.92;;;;;;;;;;5050884;28;20025;-58
2021/10/07 07:16:50;;;;;;;6.25;3.15;;;;;;;;;;5027602;28;20033;-58
2021/10/07 07:19:44;;;;;;;5.28;3.47;;;;;;;;;;5050332;28;20025;-58
2021/10/07 07:22:32;;;;;;;;;;;;;;;;;;;;;
2021/10/07 07:25:13;;;;;;;5.38;3.25;;;;;;;;;;5052480;28;20114;-58
2021/10/07 07:28:02;;;;;;;4.85;3.65;;;;;;;;;;5050626;28;20064;-58
2021/10/07 07:33:37;;;;;;;7.13;3.95;;;;;;;;;;5049375;28;20382;-58
2021/10/07 07:36:12;;;;;;;7.35;3.92;;;;;;;;;;5052490;28;20017;-58
2021/10/07 07:39:01;;;;;;;;;;;;;;;;;;;;;
2021/10/07 07:41:34;;;;;;;5.47;4.07;;;;;;;;;;5048986;28;20033;-58
2021/10/07 07:44:00;;;;;;;8.73;4.72;;;;;;;;;;5058788;28;20037;-58
2021/10/07 07:46:41;;;;;;;6.80;4.97;;;;;;;;;;5069810;28;20102;-59
2021/10/07 07:52:31;;;;;;;3.08;2.70;;;;;;;;;;5075018;28;20273;-58
2021/10/07 07:55:08;;;;;;;4.80;4.30;;;;;;;;;;5062628;28;20093;-58
2021/10/07 07:58:11;;;;;;;6.10;4.45;;;;;;;;;;5066639;28;20043;-58
2021/10/07 08:01:06;;;;;;;8.52;5.22;;;;;;;;;;5051866;28;20033;-58
2021/10/07 08:04:10;;;;;;;7.00;6.22;;;;;;;;;;5050836;28;20095;-58
2021/10/07 08:12:53;;;;;;;10.63;6.22;;;;;;;;;;5036086;28;20394;-58
2021/10/07 08:15:29;;;;;;;10.10;6.20;;;;;;;;;;5051559;28;20434;-58
2021/10/07 08:18:10;;;;;;;6.57;5.85;;;;;;;;;;5050031;28;20033;-58
2021/10/07 08:21:00;;;;;;;7.03;5.95;;;;;;;;;;5044896;28;20052;-58
2021/10/07 08:26:37;;;;;;;8.75;6.50;;;;;;;;;;5056164;28;20145;-58
2021/10/07 08:29:19;;;;;;;9.27;8.38;;;;;;;;;;5070414;28;20024;-58
2021/10/07 08:31:51;;;;;;;9.43;6.95;;;;;;;;;;5063598;28;20501;-58
2021/10/07 08:34:43;;;;;;;7.13;6.18;;;;;;;;;;5051372;28;20462;-58
2021/10/07 08:37:12;;;;;;;13.73;7.30;;;;;;;;;;5054729;28;20021;-58
2021/10/07 08:39:57;;;;;;;8.00;6.20;;;;;;;;;;5055603;28;20675;-58
2021/10/07 08:42:23;;;;;;;10.52;7.75;;;;;;;;;;5075550;28;20587;-58
2021/10/07 08:45:24;;;;;;;7.70;6.55;;;;;;;;;;5075578;28;20055;-58
2021/10/07 08:47:52;;;;;;;10.57;7.22;;;;;;;;;;5075218;28;20056;-58
2021/10/07 08:50:26;;;;;;;8.73;6.38;;;;;;;;;;5057218;28;20552;-59
2021/10/07 08:56:06;;;;;;;13.40;7.70;;;;;;;;;;5072357;28;20044;-58
2021/10/07 08:59:10;;;;;;;10.00;7.15;;;;;;;;;;5074031;28;20094;-58
2021/10/07 09:01:57;;;;;;;7.68;6.30;;;;;;;;;;5073403;28;20402;-58
2021/10/07 09:04:29;;;;;;;9.73;7.75;;;;;;;;;;5074741;28;20044;-58
2021/10/07 09:06:59;;;;;;;11.85;7.40;;;;;;;;;;5074202;28;20108;-58
2021/10/07 09:10:08;;;;;;;10.93;6.85;;;;;;;;;;5056970;28;20037;-58
2021/10/07 09:12:40;;;;;;;;;;;;;;;;;;;;;
2021/10/07 09:15:23;;;;;;;;;;;;;;;;;;;;;
2021/10/07 09:18:26;;;;;;;;;;;;;;;;;;;;;
2021/10/07 09:20:59;;;;;;;10.63;7.80;;;;;;;;;;5074711;28;20385;-58
2021/10/07 09:23:50;;;;;;;7.80;7.03;;;;;;;;;;5073562;28;20396;-59
2021/10/07 09:26:36;;;;;;;9.68;7.43;;;;;;;;;;5075001;28;20410;-58
2021/10/07 09:29:25;;;;;;;8.30;6.57;;;;;;;;;;5074517;28;20113;-59
2021/10/07 09:32:10;;;;;;;;;;;;;;;;;;;;;
2021/10/07 09:34:41;;;;;;;10.40;7.35;;;;;;;;;;5073193;28;20462;-58
2021/10/07 09:37:37;;;;;;;10.88;7.30;;;;;;;;;;5072282;28;20032;-58
2021/10/07 09:40:18;;;;;;;9.55;6.70;;;;;;;;;;5073124;28;20385;-58
2021/10/07 09:46:02;;;;;;;7.53;6.75;;;;;;;;;;5071319;28;20044;-59
2021/10/07 09:48:51;;;;;;;;;;;;;;;;;;;;;
2021/10/07 09:54:31;;;;;;;9.65;7.35;;;;;;;;;;5054862;28;20470;-59
2021/10/07 09:57:19;;;;;;;9.43;7.80;;;;;;;;;;5052508;28;20489;-58
2021/10/07 10:00:01;;;;;;;8.73;7.50;;;;;;;;;;5058512;28;20067;-58
2021/10/07 10:02:36;;;;;;;9.10;6.20;;;;;;;;;;5074690;28;20036;-58
2021/10/07 10:06:23;;;;;;;7.00;6.30;;;;;;;;;;5074512;28;20025;-59
2021/10/07 10:08:21;;;;;;;6.55;5.78;;;;;;;;;;5055253;28;20082;-58
2021/10/07 10:14:09;;;;;;;9.60;6.47;;;;;;;;;;5073815;28;20431;-58
2021/10/07 10:20:31;;;;;;;5.60;5.07;;;;;;;;;;5068159;28;20028;-58
2021/10/07 10:23:00;;;;;;;7.60;5.00;;;;;;;;;;5070035;28;20446;-58
2021/10/07 10:26:05;;;;;;;7.45;5.57;;;;;;;;;;5061414;28;20398;-58
2021/10/07 10:28:55;;;;;;;9.60;6.28;;;;;;;;;;5052858;28;20021;-58
2021/10/07 10:31:47;;;;;;;7.43;4.95;;;;;;;;;;5064649;28;20032;-58
2021/10/07 10:34:14;;;;;;;6.78;5.30;;;;;;;;;;5071921;28;20478;-58
2021/10/07 10:37:11;;;;;;;5.82;4.82;;;;;;;;;;5073317;28;20032;-58
2021/10/07 10:40:05;;;;;;;10.27;5.70;;;;;;;;;;5071953;28;20029;-58
2021/10/07 10:42:39;;;;;;;5.07;4.53;;;;;;;;;;5072687;28;20450;-58
2021/10/07 10:45:15;;;;;;;4.57;3.67;;;;;;;;;;5072723;28;20028;-59
2021/10/07 10:50:56;;;;;;;6.70;4.90;;;;;;;;;;5073251;28;20098;-58
2021/10/07 10:53:43;;;;;;;7.22;5.63;;;;;;;;;;5065364;28;20024;-58
2021/10/07 10:59:25;;;;;;;7.28;4.55;;;;;;;;;;5058604;28;20036;-58
2021/10/07 11:05:26;;;;;;;4.57;4.00;;;;;;;;;;5069425;28;20111;-58
2021/10/07 11:08:18;;;;;;;5.35;4.45;;;;;;;;;;5043863;28;20483;-58
2021/10/07 11:10:52;;;;;;;6.05;4.25;;;;;;;;;;5050161;28;20128;-58
2021/10/07 11:13:31;;;;;;;5.22;4.65;;;;;;;;;;5050450;28;20506;-58
2021/10/07 11:16:27;;;;;;;;;;;;;;;;;;;;;
2021/10/07 11:18:58;;;;;;;6.63;3.40;;;;;;;;;;5051182;28;20516;-59
2021/10/07 11:21:41;;;;;;;;;;;;;;;;;;5063445;28;20037;-58
2021/10/07 11:24:45;;;;;;;;;;;;;;;;;;;;;
2021/10/07 11:27:17;;;;;;;3.70;3.22;;;;;;;;;;5054978;28;20379;-58
2021/10/07 11:30:00;;;;;;;4.78;3.40;;;;;;;;;;5071983;28;20040;-58
2021/10/07 11:32:36;;;;;;;6.25;3.50;;;;;;;;;;5058150;28;20068;-58
2021/10/07 11:35:31;;;;;;;4.18;3.08;;;;;;;;;;5052388;28;20025;-59
2021/10/07 11:38:24;;;;;;;;;;;;;;;;;;;;;
2021/10/07 11:41:16;;;;;;;8.52;4.85;;;;;;;;;;5052354;28;20037;-58
2021/10/07 11:43:59;;;;;;;6.18;4.57;;;;;;;;;;5072360;28;20098;-58
2021/10/07 11:46:39;;;;;;;5.50;3.75;;;;;;;;;;5072283;28;20029;-58
2021/10/07 11:49:11;;;;;;;3.15;2.67;;;;;;;;;;5062165;28;20119;-58
2021/10/07 11:54:41;;;;;;;5.53;4.05;;;;;;;;;;5072594;28;20115;-58
2021/10/07 11:57:31;;;;;;;3.95;3.40;;;;;;;;;;5053698;28;20589;-58
2021/10/07 12:00:17;;;;;;;;;;;;;;;;;;;;;
2021/10/07 12:03:08;;;;;;;4.53;3.05;;;;;;;;;;5049726;28;20542;-58
2021/10/07 12:12:00;;;;;;;4.90;3.95;;;;;;;;;;5058251;28;20043;-58
2021/10/07 12:14:47;;;;;;;6.38;3.38;;;;;;;;;;5072594;28;20032;-58
2021/10/07 12:17:28;;;;;;;6.55;2.97;;;;;;;;;;5071796;28;20021;-58
2021/10/07 12:19:58;;;;;;;3.55;2.80;;;;;;;;;;5073190;28;20040;-58
2021/10/07 12:22:36;;;;;;;4.30;2.72;;;;;;;;;;5071571;28;20486;-58
2021/10/07 12:25:16;;;;;;;;;;;;;;;;;;;;;
2021/10/07 12:30:56;;;;;;;3.97;2.00;;;;;;;;;;5051611;28;20090;-58
2021/10/07 12:33:27;;;;;;;2.38;1.67;;;;;;;;;;5052716;28;20037;-58
2021/10/07 12:45:27;;;;;;;4.93;2.50;;;;;;;;;;5066418;28;20048;-58
2021/10/07 12:48:20;;;;;;;3.40;2.70;;;;;;;;;;5071342;28;20370;-58
2021/10/07 12:51:21;;;;;;;3.13;2.00;;;;;;;;;;5072759;28;20047;-58
2021/10/07 12:53:59;;;;;;;3.17;2.08;;;;;;;;;;5059332;28;20033;-59
2021/10/07 12:56:46;;;;;;;3.85;2.58;;;;;;;;;;5051137;28;20137;-58
2021/10/07 12:59:15;;;;;;;3.95;2.25;;;;;;;;;;5051063;28;20021;-58
2021/10/07 13:01:59;;;;;;;4.18;2.70;;;;;;;;;;5049794;28;20461;-58
2021/10/07 13:04:56;;;;;;;3.90;2.03;;;;;;;;;;5051083;28;20478;-58
2021/10/07 13:07:29;;;;;;;3.65;2.80;;;;;;;;;;5056700;28;20492;-59
2021/10/07 13:10:02;;;;;;;3.63;3.00;;;;;;;;;;5070935;28;20025;-58
2021/10/07 13:12:46;;;;;;;5.28;3.70;;;;;;;;;;5069375;28;20036;-58
2021/10/07 13:15:25;;;;;;;3.67;2.63;;;;;;;;;;5071061;28;20024;-59
2021/10/07 13:18:15;;;;;;;5.55;3.38;;;;;;;;;;5062858;28;20033;-58
2021/10/07 13:21:03;;;;;;;6.90;4.38;;;;;;;;;;5054425;28;20082;-58
2021/10/07 13:23:42;;;;;;;5.63;3.92;;;;;;;;;;5061715;28;20413;-58
2021/10/07 13:26:22;;;;;;;13.05;5.90;;;;;;;;;;5072266;28;20099;-58
2021/10/07 13:28:54;;;;;;;8.35;4.38;;;;;;;;;;5067992;28;20047;-59
2021/10/07 13:34:21;;;;;;;4.70;4.07;;;;;;;;;;5059711;28;20124;-58
2021/10/07 13:40:05;;;;;;;7.93;3.88;;;;;;;;;;5060502;28;20041;-58
2021/10/07 13:42:34;;;;;;;5.53;4.55;;;;;;;;;;5054037;28;20033;-58
2021/10/07 13:45:16;;;;;;;9.23;3.75;;;;;;;;;;5059048;28;20090;-58
2021/10/07 13:48:02;;;;;;;;;;;;;;;;;;;;;
2021/10/07 13:50:31;;;;;;;3.17;2.63;;;;;;;;;;5059891;28;20046;-57
2021/10/07 13:53:03;;;;;;;4.15;3.75;;;;;;;;;;5068084;28;20466;-59
2021/10/07 13:55:40;;;;;;;;;;;;;;;;;;;;;
2021/10/07 13:58:28;;;;;;;3.83;2.80;;;;;;;;;;5068478;28;20050;-58
2021/10/07 14:04:08;;;;;;;4.85;3.28;;;;;;;;;;5055372;28;20040;-57
2021/10/07 14:06:46;;;;;;;3.65;3.03;;;;;;;;;;5057659;28;20032;-58
2021/10/07 14:09:56;;;;;;;4.88;3.55;;;;;;;;;;5056831;28;20123;-58
2021/10/07 14:12:35;;;;;;;8.95;3.13;;;;;;;;;;5055965;28;20075;-58
2021/10/07 14:15:29;;;;;;;4.03;3.35;;;;;;;;;;5058989;28;20366;-58
2021/10/07 14:18:34;;;;;;;4.00;3.35;;;;;;;;;;5063654;28;20028;-58
2021/10/07 14:21:29;;;;;;;3.25;2.40;;;;;;;;;;5059452;28;20037;-58
2021/10/07 14:23:58;;;;;;;5.05;3.08;;;;;;;;;;5051912;28;20491;-58
2021/10/07 14:26:42;;;;;;;3.92;2.85;;;;;;;;;;5057048;28;20029;-57
2021/10/07 14:29:23;;;;;;;3.25;2.47;;;;;;;;;;5064735;28;20016;-58
2021/10/07 14:32:18;;;;;;;4.43;2.72;;;;;;;;;;5064134;28;20083;-58
2021/10/07 14:35:03;;;;;;;5.55;2.70;;;;;;;;;;5057325;28;20082;-58
2021/10/07 14:37:37;;;;;;;3.65;2.65;;;;;;;;;;5058017;28;20020;-58
2021/10/07 14:40:13;;;;;;;2.83;2.55;;;;;;;;;;5075848;28;20131;-58
2021/10/07 14:43:16;;;;;;;4.82;2.38;;;;;;;;;;5088884;28;20473;-58
2021/10/07 14:45:45;;;;;;;2.17;1.48;;;;;;;;;;5031471;28;20248;-57
2021/10/07 14:48:25;;;;;;;2.83;1.52;;;;;;;;;;5067295;28;20036;-57
2021/10/07 14:51:31;;;;;;;5.90;1.42;;;;;;;;;;5068490;28;20036;-58
2021/10/07 14:54:16;;;;;;;1.90;1.20;;;;;;;;;;5059502;28;20072;-58
2021/10/07 14:56:45;;;;;;;3.72;2.08;;;;;;;;;;5067602;28;20036;-58
2021/10/07 14:59:27;;;;;;;2.30;1.50;;;;;;;;;;5068634;28;20082;-58
2021/10/07 15:01:54;;;;;;;2.95;2.03;;;;;;;;;;5062948;28;20040;-58
2021/10/07 15:04:38;;;;;;;3.35;1.85;;;;;;;;;;5054025;28;20498;-58
2021/10/07 15:07:22;;;;;;;2.90;1.85;;;;;;;;;;5065707;28;20032;-58
2021/10/07 15:12:55;;;;;;;4.25;1.45;;;;;;;;;;5052696;28;20362;-57
2021/10/07 15:18:29;;;;;;;2.17;1.35;;;;;;;;;;5068971;28;20110;-58
2021/10/07 15:21:23;;;;;;;4.47;2.50;;;;;;;;;;5072970;28;20063;-58
2021/10/07 15:24:11;;;;;;;3.17;1.90;;;;;;;;;;5062259;28;20035;-58
2021/10/07 15:26:59;;;;;;;2.50;1.92;;;;;;;;;;5068190;28;20025;-59
2021/10/07 15:29:33;;;;;;;4.57;2.42;;;;;;;;;;5061874;28;20063;-58
2021/10/07 15:32:10;;;;;;;3.25;2.25;;;;;;;;;;5060495;28;20470;-58
2021/10/07 15:34:43;;;;;;;3.10;1.98;;;;;;;;;;5069155;28;20029;-58
2021/10/07 15:37:14;;;;;;;2.47;1.60;;;;;;;;;;5069037;28;20114;-58
2021/10/07 15:39:49;;;;;;;;;;;;;;;;;;;;;
2021/10/07 15:42:35;;;;;;;2.90;2.03;;;;;;;;;;5058447;28;19946;-58
2021/10/07 15:45:23;;;;;;;3.33;2.28;;;;;;;;;;5049855;28;20025;-58
2021/10/07 15:48:08;;;;;;;2.70;1.70;;;;;;;;;;5060543;28;20031;-57
2021/10/07 15:50:49;;;;;;;2.50;1.48;;;;;;;;;;5070084;28;20063;-58
2021/10/07 15:53:18;;;;;;;2.40;1.85;;;;;;;;;;5062210;28;20017;-58
2021/10/07 15:56:19;;;;;;;3.10;1.75;;;;;;;;;;5058110;28;20024;-58
2021/10/07 16:02:02;;;;;;;2.17;1.70;;;;;;;;;;5068799;28;20470;-57
2021/10/07 16:04:44;;;;;;;;;;;;;;;;;;;;;
2021/10/07 16:07:16;;;;;;;2.38;1.42;;;;;;;;;;5064358;28;20039;-58
2021/10/07 16:10:09;;;;;;;3.28;1.55;;;;;;;;;;5068183;28;20128;-57
2021/10/07 16:13:05;;;;;;;4.35;1.42;;;;;;;;;;5056618;28;20049;-56
2021/10/07 16:16:04;;;;;;;2.33;1.38;;;;;;;;;;5064991;28;20041;-58
2021/10/07 16:21:56;;;;;;;1.77;1.17;;;;;;;;;;5055358;28;20426;-58
2021/10/07 16:24:31;;;;;;;2.47;1.83;;;;;;;;;;5053762;28;20031;-57
2021/10/07 16:27:21;;;;;;;2.63;1.88;;;;;;;;;;5059980;28;20569;-56
2021/10/07 16:30:07;;;;;;;2.80;1.77;;;;;;;;;;5057961;28;20055;-57
2021/10/07 16:32:48;;;;;;;2.67;1.23;;;;;;;;;;5058141;28;20178;-58
2021/10/07 16:35:29;;;;;;;2.40;1.17;;;;;;;;;;5073084;28;20040;-58
2021/10/07 16:38:14;;;;;;;3.95;1.73;;;;;;;;;;5054093;28;20040;-57
2021/10/07 16:41:11;;;;;;;1.90;1.23;;;;;;;;;;5063074;28;20106;-58
2021/10/07 16:43:55;;;;;;;3.17;1.40;;;;;;;;;;5051689;28;20111;-58
2021/10/07 16:46:35;;;;;;;1.58;0.98;;;;;;;;;;5052098;28;20025;-57
2021/10/07 16:49:19;;;;;;;1.90;1.17;;;;;;;;;;5060597;28;20097;-58
2021/10/07 16:51:56;;;;;;;2.38;1.48;;;;;;;;;;5056757;28;20466;-58
2021/10/07 16:54:38;;;;;;;2.80;1.70;;;;;;;;;;5067216;28;20033;-58
2021/10/07 17:00:38;;;;;;;2.90;1.60;;;;;;;;;;5053801;28;20063;-58
2021/10/07 17:03:26;;;;;;;2.20;1.45;;;;;;;;;;5067473;28;20033;-58
2021/10/07 17:08:52;;;;;;;2.78;1.70;;;;;;;;;;5054270;28;20633;-58
2021/10/07 17:11:24;;;;;;;2.53;1.30;;;;;;;;;;5063495;28;20383;-58
2021/10/07 17:14:04;;;;;;;1.70;0.93;;;;;;;;;;5055332;28;20037;-58
2021/10/07 17:23:05;;;;;;;2.47;1.58;;;;;;;;;;5063669;28;20560;-57
2021/10/07 17:25:47;;;;;;;2.95;2.10;;;;;;;;;;5045760;28;20045;-58
2021/10/07 17:28:27;;;;;;;3.42;1.92;;;;;;;;;;5053033;28;20037;-58
2021/10/07 17:31:22;;;;;;;2.95;1.63;;;;;;;;;;5065284;28;20097;-58
2021/10/07 17:34:17;;;;;;;3.65;2.03;;;;;;;;;;5067755;28;20056;-58
2021/10/07 17:36:58;;;;;;;7.90;1.67;;;;;;;;;;5067194;28;20036;-57
2021/10/07 17:39:30;;;;;;;4.13;1.70;;;;;;;;;;5052797;28;20467;-57
2021/10/07 17:42:04;;;;;;;2.38;1.75;;;;;;;;;;5057316;28;20474;-59
2021/10/07 17:47:55;;;;;;;3.47;1.73;;;;;;;;;;5062606;28;20036;-57
2021/10/07 17:53:29;;;;;;;3.15;2.30;;;;;;;;;;5074336;28;20050;-57
2021/10/07 17:56:11;;;;;;;3.97;2.72;;;;;;;;;;5073103;28;20021;-56
2021/10/07 18:04:46;;;;;;;4.03;2.33;;;;;;;;;;5059542;28;20555;-59
2021/10/07 18:07:30;;;;;;;20.75;2.92;;;;;;;;;;5052516;28;20079;-57
2021/10/07 18:10:08;;;;;;;2.38;1.65;;;;;;;;;;5037052;28;20493;-57
2021/10/07 18:12:56;;;;;;;2.45;1.77;;;;;;;;;;5053938;28;20020;-57
2021/10/07 18:15:36;;;;;;;6.57;2.65;;;;;;;;;;5053599;28;20029;-57
2021/10/07 18:18:31;;;;;;;3.47;1.92;;;;;;;;;;5050892;28;20067;-58
2021/10/07 18:21:18;;;;;;;3.55;2.40;;;;;;;;;;5062817;28;20043;-59
2021/10/07 18:24:06;;;;;;;3.95;2.08;;;;;;;;;;5072188;28;20078;-58
2021/10/07 18:26:55;;;;;;;3.58;2.40;;;;;;;;;;5072165;28;20438;-58
2021/10/07 18:29:34;;;;;;;2.53;1.70;;;;;;;;;;5070969;28;20485;-58
2021/10/07 18:32:13;;;;;;;2.72;2.13;;;;;;;;;;5063451;28;20029;-57
2021/10/07 18:34:58;;;;;;;2.83;2.13;;;;;;;;;;5059061;28;20462;-57
2021/10/07 18:40:54;;;;;;;5.10;1.58;;;;;;;;;;5052958;28;20045;-57
2021/10/07 18:43:41;;;;;;;2.83;1.80;;;;;;;;;;5052474;28;20470;-59
2021/10/07 18:46:20;;;;;;;2.17;1.48;;;;;;;;;;5039918;28;20033;-58
2021/10/07 18:48:58;;;;;;;2.38;1.38;;;;;;;;;;5051626;28;20033;-58
2021/10/07 18:51:31;;;;;;;2.90;1.83;;;;;;;;;;5056948;28;20488;-59
2021/10/07 18:54:02;;;;;;;2.75;1.52;;;;;;;;;;5072221;28;20056;-58
2021/10/07 18:56:54;;;;;;;3.10;1.73;;;;;;;;;;5073017;28;20102;-58
2021/10/07 18:59:35;;;;;;;2.97;1.85;;;;;;;;;;5072450;28;20036;-58
2021/10/07 19:02:15;;;;;;;2.67;1.83;;;;;;;;;;5073556;28;20033;-59
2021/10/07 19:05:12;;;;;;;;;;;;;;;;;;;;;
2021/10/07 19:10:48;;;;;;;3.33;1.85;;;;;;;;;;5071777;28;20101;-57
2021/10/07 19:13:41;;;;;;;2.92;1.90;;;;;;;;;;5072296;28;20025;-57
2021/10/07 19:16:40;;;;;;;1.75;1.33;;;;;;;;;;5055365;28;20036;-59
2021/10/07 19:19:22;;;;;;;4.18;1.48;;;;;;;;;;5072340;28;20052;-58
2021/10/07 19:22:15;;;;;;;4.43;1.55;;;;;;;;;;5053781;28;20040;-59
2021/10/07 19:25:10;;;;;;;3.25;1.60;;;;;;;;;;5053172;28;20040;-58
2021/10/07 19:27:45;;;;;;;3.33;1.60;;;;;;;;;;5052251;28;20479;-59
2021/10/07 19:33:19;;;;;;;3.17;1.85;;;;;;;;;;5070070;28;20139;-59
2021/10/07 19:36:10;;;;;;;2.10;1.27;;;;;;;;;;5072024;28;20032;-59
2021/10/07 19:39:11;;;;;;;2.50;1.80;;;;;;;;;;5072015;28;20497;-59
2021/10/07 19:42:05;;;;;;;3.65;2.03;;;;;;;;;;5074514;28;20032;-59
2021/10/07 19:45:07;;;;;;;3.28;2.20;;;;;;;;;;5072221;28;20032;-59
2021/10/07 19:47:47;;;;;;;2.92;1.85;;;;;;;;;;5071159;28;20466;-59
2021/10/07 19:50:33;;;;;;;2.45;1.92;;;;;;;;;;5058431;28;20498;-59
2021/10/07 19:53:11;;;;;;;2.38;1.70;;;;;;;;;;5051365;28;20467;-58
2021/10/07 19:55:49;;;;;;;3.38;1.60;;;;;;;;;;5052344;28;20033;-59